sensor_id;sensor_type;location;lat;lon;timestamp;temperature;humidity
44747;DHT22;30472;49.490;10.972;2022-09-01T00:02:13;15.50;99.90
44747;DHT22;30472;49.490;10.972;2022-09-01T00:04:43;15.60;99.90
44747;DHT22;30472;49.490;10.972;2022-09-01T00:07:10;15.60;99.90
44747;DHT22;30472;49.490;10.972;2022-09-01T00:09:37;15.60;99.90
44747;DHT22;30472;49.490;10.972;2022-09-01T00:12:05;15.60;99.90
44747;DHT22;30472;49.490;10.972;2022-09-01T00:14:35;15.60;99.90
44747;DHT22;30472;49.490;10.972;2022-09-01T00:17:09;15.60;99.90
44747;DHT22;30472;49.490;10.972;2022-09-01T00:19:35;15.60;99.90
44747;DHT22;30472;49.490;10.972;2022-09-01T00:22:03;15.60;99.90
44747;DHT22;30472;49.490;10.972;2022-09-01T00:24:29;15.70;99.90
44747;DHT22;30472;49.490;10.972;2022-09-01T00:26:55;15.70;99.90
44747;DHT22;30472;49.490;10.972;2022-09-01T00:29:21;15.70;99.90
44747;DHT22;30472;49.490;10.972;2022-09-01T00:31:47;15.70;99.90
44747;DHT22;30472;49.490;10.972;2022-09-01T00:34:12;15.60;99.90
44747;DHT22;30472;49.490;10.972;2022-09-01T00:36:38;15.70;99.90
44747;DHT22;30472;49.490;10.972;2022-09-01T00:39:05;15.70;99.90
44747;DHT22;30472;49.490;10.972;2022-09-01T00:41:34;15.70;99.90
44747;DHT22;30472;49.490;10.972;2022-09-01T00:44:05;15.70;99.90
44747;DHT22;30472;49.490;10.972;2022-09-01T00:46:35;15.70;99.90
44747;DHT22;30472;49.490;10.972;2022-09-01T00:51:30;15.60;99.90
44747;DHT22;30472;49.490;10.972;2022-09-01T00:53:58;15.60;99.90
44747;DHT22;30472;49.490;10.972;2022-09-01T00:56:24;15.60;99.90
44747;DHT22;30472;49.490;10.972;2022-09-01T00:58:50;15.50;99.90
44747;DHT22;30472;49.490;10.972;2022-09-01T01:01:17;15.60;99.90
44747;DHT22;30472;49.490;10.972;2022-09-01T01:03:43;15.50;99.90
44747;DHT22;30472;49.490;10.972;2022-09-01T01:06:12;15.50;99.90
44747;DHT22;30472;49.490;10.972;2022-09-01T01:08:43;15.50;99.90
44747;DHT22;30472;49.490;10.972;2022-09-01T01:11:14;15.50;99.90
44747;DHT22;30472;49.490;10.972;2022-09-01T01:13:52;15.60;99.90
44747;DHT22;30472;49.490;10.972;2022-09-01T01:16:20;15.60;99.90
44747;DHT22;30472;49.490;10.972;2022-09-01T01:18:46;15.50;99.90
44747;DHT22;30472;49.490;10.972;2022-09-01T01:21:24;15.50;99.90
44747;DHT22;30472;49.490;10.972;2022-09-01T01:24:30;15.50;99.90
44747;DHT22;30472;49.490;10.972;2022-09-01T01:26:57;15.50;99.90
44747;DHT22;30472;49.490;10.972;2022-09-01T01:29:24;15.40;99.90
44747;DHT22;30472;49.490;10.972;2022-09-01T01:31:51;15.40;99.90
44747;DHT22;30472;49.490;10.972;2022-09-01T01:34:18;15.40;99.90
44747;DHT22;30472;49.490;10.972;2022-09-01T01:36:45;15.30;99.90
44747;DHT22;30472;49.490;10.972;2022-09-01T01:39:23;15.30;99.90
44747;DHT22;30472;49.490;10.972;2022-09-01T01:41:51;15.30;99.90
44747;DHT22;30472;49.490;10.972;2022-09-01T01:44:20;15.30;99.90
44747;DHT22;30472;49.490;10.972;2022-09-01T01:46:49;15.30;99.90
44747;DHT22;30472;49.490;10.972;2022-09-01T01:49:18;15.30;99.90
44747;DHT22;30472;49.490;10.972;2022-09-01T01:51:51;15.30;99.90
44747;DHT22;30472;49.490;10.972;2022-09-01T01:54:23;15.20;99.90
44747;DHT22;30472;49.490;10.972;2022-09-01T01:56:49;15.20;99.90
44747;DHT22;30472;49.490;10.972;2022-09-01T01:59:14;15.20;99.90
44747;DHT22;30472;49.490;10.972;2022-09-01T02:01:41;15.10;99.90
44747;DHT22;30472;49.490;10.972;2022-09-01T02:04:09;15.10;99.90
44747;DHT22;30472;49.490;10.972;2022-09-01T02:06:36;15.10;99.90
44747;DHT22;30472;49.490;10.972;2022-09-01T02:09:06;15.00;99.90
44747;DHT22;30472;49.490;10.972;2022-09-01T02:11:32;15.00;99.90
44747;DHT22;30472;49.490;10.972;2022-09-01T02:13:59;15.00;99.90
44747;DHT22;30472;49.490;10.972;2022-09-01T02:16:27;14.80;99.90
44747;DHT22;30472;49.490;10.972;2022-09-01T02:18:53;14.80;99.90
44747;DHT22;30472;49.490;10.972;2022-09-01T02:21:21;14.70;99.90
44747;DHT22;30472;49.490;10.972;2022-09-01T02:23:55;14.60;99.90
44747;DHT22;30472;49.490;10.972;2022-09-01T02:26:30;14.50;99.90
44747;DHT22;30472;49.490;10.972;2022-09-01T02:28:59;14.40;99.90
44747;DHT22;30472;49.490;10.972;2022-09-01T02:31:32;14.40;99.90
44747;DHT22;30472;49.490;10.972;2022-09-01T02:34:05;14.30;99.90
44747;DHT22;30472;49.490;10.972;2022-09-01T02:36:35;14.20;99.90
44747;DHT22;30472;49.490;10.972;2022-09-01T02:39:06;14.20;99.90
44747;DHT22;30472;49.490;10.972;2022-09-01T02:41:32;14.10;99.90
44747;DHT22;30472;49.490;10.972;2022-09-01T02:43:59;14.10;99.90
44747;DHT22;30472;49.490;10.972;2022-09-01T02:46:27;14.10;99.90
44747;DHT22;30472;49.490;10.972;2022-09-01T02:48:54;14.00;99.90
44747;DHT22;30472;49.490;10.972;2022-09-01T02:51:21;14.00;99.90
44747;DHT22;30472;49.490;10.972;2022-09-01T02:53:49;13.90;99.90
44747;DHT22;30472;49.490;10.972;2022-09-01T02:56:18;13.90;99.90
44747;DHT22;30472;49.490;10.972;2022-09-01T02:58:45;13.80;99.90
44747;DHT22;30472;49.490;10.972;2022-09-01T03:01:23;13.80;99.90
44747;DHT22;30472;49.490;10.972;2022-09-01T03:03:52;13.80;99.90
44747;DHT22;30472;49.490;10.972;2022-09-01T03:06:18;13.70;99.90
44747;DHT22;30472;49.490;10.972;2022-09-01T03:08:49;13.70;99.90
44747;DHT22;30472;49.490;10.972;2022-09-01T03:11:15;13.60;99.90
44747;DHT22;30472;49.490;10.972;2022-09-01T03:13:42;13.50;99.90
44747;DHT22;30472;49.490;10.972;2022-09-01T03:16:08;13.50;99.90
44747;DHT22;30472;49.490;10.972;2022-09-01T03:18:34;13.40;99.90
44747;DHT22;30472;49.490;10.972;2022-09-01T03:21:01;13.40;99.90
44747;DHT22;30472;49.490;10.972;2022-09-01T03:23:29;13.30;99.90
44747;DHT22;30472;49.490;10.972;2022-09-01T03:25:56;13.30;99.90
44747;DHT22;30472;49.490;10.972;2022-09-01T03:28:22;13.30;99.90
44747;DHT22;30472;49.490;10.972;2022-09-01T03:30:53;13.20;99.90
44747;DHT22;30472;49.490;10.972;2022-09-01T03:33:21;13.20;99.90
44747;DHT22;30472;49.490;10.972;2022-09-01T03:35:47;13.20;99.90
44747;DHT22;30472;49.490;10.972;2022-09-01T03:38:13;13.10;99.90
44747;DHT22;30472;49.490;10.972;2022-09-01T03:40:47;13.10;99.90
44747;DHT22;30472;49.490;10.972;2022-09-01T03:43:13;13.10;99.90
44747;DHT22;30472;49.490;10.972;2022-09-01T03:45:41;13.10;99.90
44747;DHT22;30472;49.490;10.972;2022-09-01T03:48:07;13.00;99.90
44747;DHT22;30472;49.490;10.972;2022-09-01T03:50:39;13.00;99.90
44747;DHT22;30472;49.490;10.972;2022-09-01T03:53:10;13.00;99.90
44747;DHT22;30472;49.490;10.972;2022-09-01T03:55:36;13.00;99.90
44747;DHT22;30472;49.490;10.972;2022-09-01T03:58:07;13.00;99.90
44747;DHT22;30472;49.490;10.972;2022-09-01T04:00:42;12.90;99.90
44747;DHT22;30472;49.490;10.972;2022-09-01T04:03:10;12.90;99.90
44747;DHT22;30472;49.490;10.972;2022-09-01T04:05:38;12.90;99.90
44747;DHT22;30472;49.490;10.972;2022-09-01T04:08:07;12.80;99.90
44747;DHT22;30472;49.490;10.972;2022-09-01T04:10:41;12.80;99.90
44747;DHT22;30472;49.490;10.972;2022-09-01T04:13:08;12.70;99.90
44747;DHT22;30472;49.490;10.972;2022-09-01T04:15:36;12.70;99.90
44747;DHT22;30472;49.490;10.972;2022-09-01T04:18:02;12.70;99.90
44747;DHT22;30472;49.490;10.972;2022-09-01T04:20:49;12.70;99.90
44747;DHT22;30472;49.490;10.972;2022-09-01T04:23:16;12.70;99.90
44747;DHT22;30472;49.490;10.972;2022-09-01T04:25:47;12.70;99.90
44747;DHT22;30472;49.490;10.972;2022-09-01T04:28:16;12.60;99.90
44747;DHT22;30472;49.490;10.972;2022-09-01T04:30:57;12.60;99.90
44747;DHT22;30472;49.490;10.972;2022-09-01T04:33:24;12.60;99.90
44747;DHT22;30472;49.490;10.972;2022-09-01T04:35:52;12.60;99.90
44747;DHT22;30472;49.490;10.972;2022-09-01T04:38:23;12.60;99.90
44747;DHT22;30472;49.490;10.972;2022-09-01T04:40:49;12.60;99.90
44747;DHT22;30472;49.490;10.972;2022-09-01T04:43:16;12.60;99.90
44747;DHT22;30472;49.490;10.972;2022-09-01T04:45:41;12.60;99.90
44747;DHT22;30472;49.490;10.972;2022-09-01T04:48:07;12.60;99.90
44747;DHT22;30472;49.490;10.972;2022-09-01T04:50:34;12.60;99.90
44747;DHT22;30472;49.490;10.972;2022-09-01T04:53:01;12.60;99.90
44747;DHT22;30472;49.490;10.972;2022-09-01T04:55:28;12.60;99.90
44747;DHT22;30472;49.490;10.972;2022-09-01T04:57:58;12.50;99.90
44747;DHT22;30472;49.490;10.972;2022-09-01T05:00:25;12.60;99.90
44747;DHT22;30472;49.490;10.972;2022-09-01T05:02:58;12.60;99.90
44747;DHT22;30472;49.490;10.972;2022-09-01T05:05:35;12.60;99.90
44747;DHT22;30472;49.490;10.972;2022-09-01T05:08:06;12.60;99.90
44747;DHT22;30472;49.490;10.972;2022-09-01T05:10:38;12.70;99.90
44747;DHT22;30472;49.490;10.972;2022-09-01T05:13:06;12.70;99.90
44747;DHT22;30472;49.490;10.972;2022-09-01T05:15:40;12.70;99.90
44747;DHT22;30472;49.490;10.972;2022-09-01T05:18:14;12.70;99.90
44747;DHT22;30472;49.490;10.972;2022-09-01T05:20:41;12.80;99.90
44747;DHT22;30472;49.490;10.972;2022-09-01T05:23:09;12.80;99.90
44747;DHT22;30472;49.490;10.972;2022-09-01T05:25:41;12.80;99.90
44747;DHT22;30472;49.490;10.972;2022-09-01T05:28:11;12.90;99.90
44747;DHT22;30472;49.490;10.972;2022-09-01T05:30:38;13.00;99.90
44747;DHT22;30472;49.490;10.972;2022-09-01T05:33:05;13.10;99.90
44747;DHT22;30472;49.490;10.972;2022-09-01T05:35:36;13.10;99.90
44747;DHT22;30472;49.490;10.972;2022-09-01T05:38:03;13.20;99.90
44747;DHT22;30472;49.490;10.972;2022-09-01T05:40:29;13.30;99.90
44747;DHT22;30472;49.490;10.972;2022-09-01T05:42:54;13.40;99.90
44747;DHT22;30472;49.490;10.972;2022-09-01T05:45:20;13.40;99.90
44747;DHT22;30472;49.490;10.972;2022-09-01T05:47:48;13.50;99.90
44747;DHT22;30472;49.490;10.972;2022-09-01T05:50:14;13.60;99.90
44747;DHT22;30472;49.490;10.972;2022-09-01T05:52:42;13.60;99.90
44747;DHT22;30472;49.490;10.972;2022-09-01T05:55:09;13.70;99.90
44747;DHT22;30472;49.490;10.972;2022-09-01T05:57:35;13.80;99.90
44747;DHT22;30472;49.490;10.972;2022-09-01T06:00:06;13.90;99.90
44747;DHT22;30472;49.490;10.972;2022-09-01T06:02:36;14.00;99.90
44747;DHT22;30472;49.490;10.972;2022-09-01T06:05:03;14.00;99.90
44747;DHT22;30472;49.490;10.972;2022-09-01T06:07:29;14.00;99.90
44747;DHT22;30472;49.490;10.972;2022-09-01T06:09:55;14.20;99.90
44747;DHT22;30472;49.490;10.972;2022-09-01T06:12:21;14.20;99.90
44747;DHT22;30472;49.490;10.972;2022-09-01T06:14:53;14.30;99.90
44747;DHT22;30472;49.490;10.972;2022-09-01T06:17:20;14.40;99.90
44747;DHT22;30472;49.490;10.972;2022-09-01T06:19:50;14.50;99.90
44747;DHT22;30472;49.490;10.972;2022-09-01T06:22:17;14.70;99.90
44747;DHT22;30472;49.490;10.972;2022-09-01T06:24:44;14.90;99.90
44747;DHT22;30472;49.490;10.972;2022-09-01T06:27:12;15.00;99.90
44747;DHT22;30472;49.490;10.972;2022-09-01T06:29:38;15.20;99.90
44747;DHT22;30472;49.490;10.972;2022-09-01T06:32:06;15.30;99.90
44747;DHT22;30472;49.490;10.972;2022-09-01T06:34:34;15.50;99.90
44747;DHT22;30472;49.490;10.972;2022-09-01T06:37:00;15.60;99.90
44747;DHT22;30472;49.490;10.972;2022-09-01T06:39:26;15.80;99.90
44747;DHT22;30472;49.490;10.972;2022-09-01T06:41:51;15.80;99.90
44747;DHT22;30472;49.490;10.972;2022-09-01T06:44:18;15.80;99.90
44747;DHT22;30472;49.490;10.972;2022-09-01T06:46:47;15.80;99.90
44747;DHT22;30472;49.490;10.972;2022-09-01T06:49:13;15.90;99.90
44747;DHT22;30472;49.490;10.972;2022-09-01T06:51:39;16.00;99.90
44747;DHT22;30472;49.490;10.972;2022-09-01T06:54:05;16.10;99.90
44747;DHT22;30472;49.490;10.972;2022-09-01T06:56:32;16.20;99.90
44747;DHT22;30472;49.490;10.972;2022-09-01T06:59:01;16.30;99.90
44747;DHT22;30472;49.490;10.972;2022-09-01T07:01:30;16.40;99.90
44747;DHT22;30472;49.490;10.972;2022-09-01T07:03:55;16.70;99.90
44747;DHT22;30472;49.490;10.972;2022-09-01T07:06:22;17.20;99.90
44747;DHT22;30472;49.490;10.972;2022-09-01T07:08:52;17.90;99.90
44747;DHT22;30472;49.490;10.972;2022-09-01T07:11:23;18.60;99.90
44747;DHT22;30472;49.490;10.972;2022-09-01T07:13:50;19.30;99.90
44747;DHT22;30472;49.490;10.972;2022-09-01T07:16:19;19.80;99.90
44747;DHT22;30472;49.490;10.972;2022-09-01T07:18:52;20.10;99.90
44747;DHT22;30472;49.490;10.972;2022-09-01T07:21:19;20.30;99.90
44747;DHT22;30472;49.490;10.972;2022-09-01T07:23:45;20.00;99.90
44747;DHT22;30472;49.490;10.972;2022-09-01T07:26:12;20.00;99.90
44747;DHT22;30472;49.490;10.972;2022-09-01T07:28:47;19.70;99.90
44747;DHT22;30472;49.490;10.972;2022-09-01T07:31:24;19.30;99.90
44747;DHT22;30472;49.490;10.972;2022-09-01T07:33:51;19.30;99.90
44747;DHT22;30472;49.490;10.972;2022-09-01T07:36:19;19.00;99.90
44747;DHT22;30472;49.490;10.972;2022-09-01T07:38:45;19.60;99.90
44747;DHT22;30472;49.490;10.972;2022-09-01T07:41:16;20.00;99.90
44747;DHT22;30472;49.490;10.972;2022-09-01T07:43:42;20.40;99.90
44747;DHT22;30472;49.490;10.972;2022-09-01T07:46:09;20.90;99.90
44747;DHT22;30472;49.490;10.972;2022-09-01T07:48:35;21.00;99.90
44747;DHT22;30472;49.490;10.972;2022-09-01T07:51:02;21.10;99.90
44747;DHT22;30472;49.490;10.972;2022-09-01T07:53:30;21.20;99.90
44747;DHT22;30472;49.490;10.972;2022-09-01T07:56:03;21.30;99.90
44747;DHT22;30472;49.490;10.972;2022-09-01T07:58:32;21.10;99.90
44747;DHT22;30472;49.490;10.972;2022-09-01T08:00:58;22.20;99.90
44747;DHT22;30472;49.490;10.972;2022-09-01T08:03:28;22.90;99.90
44747;DHT22;30472;49.490;10.972;2022-09-01T08:05:54;23.30;99.90
44747;DHT22;30472;49.490;10.972;2022-09-01T08:08:24;23.40;99.90
44747;DHT22;30472;49.490;10.972;2022-09-01T08:10:50;23.70;99.90
44747;DHT22;30472;49.490;10.972;2022-09-01T08:13:16;23.90;99.90
44747;DHT22;30472;49.490;10.972;2022-09-01T08:15:42;24.00;99.90
44747;DHT22;30472;49.490;10.972;2022-09-01T08:18:08;24.10;99.90
44747;DHT22;30472;49.490;10.972;2022-09-01T08:20:37;24.60;99.90
44747;DHT22;30472;49.490;10.972;2022-09-01T08:23:04;24.50;99.90
44747;DHT22;30472;49.490;10.972;2022-09-01T08:25:31;24.20;99.90
44747;DHT22;30472;49.490;10.972;2022-09-01T08:27:57;24.50;99.90
44747;DHT22;30472;49.490;10.972;2022-09-01T08:30:23;24.80;99.90
44747;DHT22;30472;49.490;10.972;2022-09-01T08:32:48;25.40;99.90
44747;DHT22;30472;49.490;10.972;2022-09-01T08:35:14;25.60;99.90
44747;DHT22;30472;49.490;10.972;2022-09-01T08:37:41;25.40;99.90
44747;DHT22;30472;49.490;10.972;2022-09-01T08:40:09;24.80;99.90
44747;DHT22;30472;49.490;10.972;2022-09-01T08:45:37;25.50;99.90
44747;DHT22;30472;49.490;10.972;2022-09-01T08:48:38;25.80;99.90
44747;DHT22;30472;49.490;10.972;2022-09-01T08:54:48;25.80;99.90
44747;DHT22;30472;49.490;10.972;2022-09-01T08:57:31;25.80;99.90
44747;DHT22;30472;49.490;10.972;2022-09-01T08:59:57;25.80;99.90
44747;DHT22;30472;49.490;10.972;2022-09-01T09:02:44;25.70;99.90
44747;DHT22;30472;49.490;10.972;2022-09-01T09:16:14;26.60;99.90
44747;DHT22;30472;49.490;10.972;2022-09-01T09:18:49;26.90;99.90
44747;DHT22;30472;49.490;10.972;2022-09-01T09:21:22;27.00;99.90
44747;DHT22;30472;49.490;10.972;2022-09-01T09:23:58;26.90;99.90
44747;DHT22;30472;49.490;10.972;2022-09-01T09:26:25;26.50;99.90
44747;DHT22;30472;49.490;10.972;2022-09-01T09:28:52;26.10;99.90
44747;DHT22;30472;49.490;10.972;2022-09-01T09:33:50;25.60;99.90
44747;DHT22;30472;49.490;10.972;2022-09-01T09:36:22;25.20;99.90
44747;DHT22;30472;49.490;10.972;2022-09-01T09:39:04;25.30;99.90
44747;DHT22;30472;49.490;10.972;2022-09-01T09:41:30;24.90;99.90
44747;DHT22;30472;49.490;10.972;2022-09-01T09:44:24;24.60;99.90
44747;DHT22;30472;49.490;10.972;2022-09-01T09:46:50;24.30;99.90
44747;DHT22;30472;49.490;10.972;2022-09-01T09:49:30;24.20;99.90
44747;DHT22;30472;49.490;10.972;2022-09-01T09:52:16;24.20;99.90
44747;DHT22;30472;49.490;10.972;2022-09-01T09:55:02;24.40;99.90
44747;DHT22;30472;49.490;10.972;2022-09-01T09:57:30;24.00;99.90
44747;DHT22;30472;49.490;10.972;2022-09-01T10:03:09;23.60;99.90
44747;DHT22;30472;49.490;10.972;2022-09-01T10:05:43;23.70;99.90
44747;DHT22;30472;49.490;10.972;2022-09-01T10:08:13;23.70;99.90
44747;DHT22;30472;49.490;10.972;2022-09-01T10:10:43;23.60;99.90
44747;DHT22;30472;49.490;10.972;2022-09-01T10:13:19;23.90;99.90
44747;DHT22;30472;49.490;10.972;2022-09-01T10:15:53;23.40;99.90
44747;DHT22;30472;49.490;10.972;2022-09-01T10:18:22;23.30;99.90
44747;DHT22;30472;49.490;10.972;2022-09-01T10:21:00;23.10;99.90
44747;DHT22;30472;49.490;10.972;2022-09-01T10:23:29;23.00;99.90
44747;DHT22;30472;49.490;10.972;2022-09-01T10:26:00;23.20;99.90
44747;DHT22;30472;49.490;10.972;2022-09-01T10:28:27;23.60;99.90
44747;DHT22;30472;49.490;10.972;2022-09-01T10:30:56;23.90;99.90
44747;DHT22;30472;49.490;10.972;2022-09-01T10:33:24;23.90;99.90
44747;DHT22;30472;49.490;10.972;2022-09-01T10:35:51;23.90;99.90
44747;DHT22;30472;49.490;10.972;2022-09-01T10:38:21;24.20;99.90
44747;DHT22;30472;49.490;10.972;2022-09-01T10:40:49;24.40;99.90
44747;DHT22;30472;49.490;10.972;2022-09-01T10:43:39;24.60;99.90
44747;DHT22;30472;49.490;10.972;2022-09-01T10:48:49;24.10;99.90
44747;DHT22;30472;49.490;10.972;2022-09-01T10:53:42;24.10;99.90
44747;DHT22;30472;49.490;10.972;2022-09-01T10:56:24;24.20;99.90
44747;DHT22;30472;49.490;10.972;2022-09-01T11:06:43;24.20;99.90
44747;DHT22;30472;49.490;10.972;2022-09-01T11:09:46;24.10;99.90
44747;DHT22;30472;49.490;10.972;2022-09-01T11:13:04;23.90;99.90
44747;DHT22;30472;49.490;10.972;2022-09-01T11:15:36;23.90;99.90
44747;DHT22;30472;49.490;10.972;2022-09-01T11:18:07;23.80;99.90
44747;DHT22;30472;49.490;10.972;2022-09-01T11:20:37;23.70;99.90
44747;DHT22;30472;49.490;10.972;2022-09-01T11:23:23;23.80;99.90
44747;DHT22;30472;49.490;10.972;2022-09-01T11:32:14;23.60;99.90
44747;DHT22;30472;49.490;10.972;2022-09-01T11:34:43;23.50;99.90
44747;DHT22;30472;49.490;10.972;2022-09-01T11:37:20;23.50;99.90
44747;DHT22;30472;49.490;10.972;2022-09-01T11:39:52;23.50;99.90
44747;DHT22;30472;49.490;10.972;2022-09-01T11:42:24;23.50;99.90
44747;DHT22;30472;49.490;10.972;2022-09-01T11:45:03;23.60;99.90
44747;DHT22;30472;49.490;10.972;2022-09-01T11:47:42;23.60;99.90
44747;DHT22;30472;49.490;10.972;2022-09-01T11:52:41;23.60;99.90
44747;DHT22;30472;49.490;10.972;2022-09-01T11:55:08;23.70;99.90
44747;DHT22;30472;49.490;10.972;2022-09-01T11:57:37;23.70;99.90
44747;DHT22;30472;49.490;10.972;2022-09-01T12:00:07;23.60;99.90
44747;DHT22;30472;49.490;10.972;2022-09-01T12:02:35;23.50;99.90
44747;DHT22;30472;49.490;10.972;2022-09-01T12:05:08;23.10;99.90
44747;DHT22;30472;49.490;10.972;2022-09-01T12:07:47;23.00;99.90
44747;DHT22;30472;49.490;10.972;2022-09-01T12:12:44;22.90;99.90
44747;DHT22;30472;49.490;10.972;2022-09-01T12:15:17;23.10;99.90
44747;DHT22;30472;49.490;10.972;2022-09-01T12:17:43;23.10;99.90
44747;DHT22;30472;49.490;10.972;2022-09-01T12:20:27;23.20;99.90
44747;DHT22;30472;49.490;10.972;2022-09-01T12:22:53;22.90;99.90
44747;DHT22;30472;49.490;10.972;2022-09-01T12:25:26;22.90;99.90
44747;DHT22;30472;49.490;10.972;2022-09-01T12:27:52;22.70;99.90
44747;DHT22;30472;49.490;10.972;2022-09-01T12:30:19;22.70;99.90
44747;DHT22;30472;49.490;10.972;2022-09-01T12:32:46;22.70;99.90
44747;DHT22;30472;49.490;10.972;2022-09-01T12:35:16;22.60;99.90
44747;DHT22;30472;49.490;10.972;2022-09-01T12:37:43;22.40;99.90
44747;DHT22;30472;49.490;10.972;2022-09-01T12:40:31;22.60;99.90
44747;DHT22;30472;49.490;10.972;2022-09-01T12:42:57;22.50;99.90
44747;DHT22;30472;49.490;10.972;2022-09-01T12:45:44;22.60;99.90
44747;DHT22;30472;49.490;10.972;2022-09-01T12:48:34;22.70;99.90
44747;DHT22;30472;49.490;10.972;2022-09-01T12:51:24;22.70;99.90
44747;DHT22;30472;49.490;10.972;2022-09-01T12:53:53;22.60;99.90
44747;DHT22;30472;49.490;10.972;2022-09-01T12:56:25;22.80;99.90
44747;DHT22;30472;49.490;10.972;2022-09-01T12:59:08;22.90;99.90
44747;DHT22;30472;49.490;10.972;2022-09-01T13:01:37;22.80;99.90
44747;DHT22;30472;49.490;10.972;2022-09-01T13:06:40;23.50;99.90
44747;DHT22;30472;49.490;10.972;2022-09-01T13:09:06;23.50;99.90
44747;DHT22;30472;49.490;10.972;2022-09-01T13:11:32;23.60;99.90
44747;DHT22;30472;49.490;10.972;2022-09-01T13:13:58;23.80;99.90
44747;DHT22;30472;49.490;10.972;2022-09-01T13:16:25;23.80;99.90
44747;DHT22;30472;49.490;10.972;2022-09-01T13:18:50;23.70;99.90
44747;DHT22;30472;49.490;10.972;2022-09-01T13:21:16;23.70;99.90
44747;DHT22;30472;49.490;10.972;2022-09-01T13:23:42;23.80;99.90
44747;DHT22;30472;49.490;10.972;2022-09-01T13:26:08;23.70;99.90
44747;DHT22;30472;49.490;10.972;2022-09-01T13:28:35;23.80;99.90
44747;DHT22;30472;49.490;10.972;2022-09-01T13:31:03;23.80;99.90
44747;DHT22;30472;49.490;10.972;2022-09-01T13:33:30;23.70;99.90
44747;DHT22;30472;49.490;10.972;2022-09-01T13:35:56;23.60;99.90
44747;DHT22;30472;49.490;10.972;2022-09-01T13:38:22;23.50;99.90
44747;DHT22;30472;49.490;10.972;2022-09-01T13:40:49;23.80;99.90
44747;DHT22;30472;49.490;10.972;2022-09-01T13:43:20;23.70;99.90
44747;DHT22;30472;49.490;10.972;2022-09-01T13:45:47;23.50;99.90
44747;DHT22;30472;49.490;10.972;2022-09-01T13:48:13;23.40;99.90
44747;DHT22;30472;49.490;10.972;2022-09-01T13:50:39;23.50;99.90
44747;DHT22;30472;49.490;10.972;2022-09-01T13:53:06;23.50;99.90
44747;DHT22;30472;49.490;10.972;2022-09-01T13:55:34;23.50;99.90
44747;DHT22;30472;49.490;10.972;2022-09-01T13:58:00;23.50;99.90
44747;DHT22;30472;49.490;10.972;2022-09-01T14:00:33;23.40;99.90
44747;DHT22;30472;49.490;10.972;2022-09-01T14:03:04;23.20;99.90
44747;DHT22;30472;49.490;10.972;2022-09-01T14:05:34;23.10;99.90
44747;DHT22;30472;49.490;10.972;2022-09-01T14:08:00;23.00;99.90
44747;DHT22;30472;49.490;10.972;2022-09-01T14:10:28;22.90;99.90
44747;DHT22;30472;49.490;10.972;2022-09-01T14:12:54;22.90;99.90
44747;DHT22;30472;49.490;10.972;2022-09-01T14:15:20;23.10;99.90
44747;DHT22;30472;49.490;10.972;2022-09-01T14:17:49;23.30;99.90
44747;DHT22;30472;49.490;10.972;2022-09-01T14:20:18;23.50;99.90
44747;DHT22;30472;49.490;10.972;2022-09-01T14:22:44;23.40;99.90
44747;DHT22;30472;49.490;10.972;2022-09-01T14:25:10;23.50;99.90
44747;DHT22;30472;49.490;10.972;2022-09-01T14:27:37;23.60;99.90
44747;DHT22;30472;49.490;10.972;2022-09-01T14:30:13;23.70;99.90
44747;DHT22;30472;49.490;10.972;2022-09-01T14:32:39;23.80;99.90
44747;DHT22;30472;49.490;10.972;2022-09-01T14:35:05;23.90;99.90
44747;DHT22;30472;49.490;10.972;2022-09-01T14:37:33;23.80;99.90
44747;DHT22;30472;49.490;10.972;2022-09-01T14:39:59;23.70;99.90
44747;DHT22;30472;49.490;10.972;2022-09-01T14:42:24;23.70;99.90
44747;DHT22;30472;49.490;10.972;2022-09-01T14:44:53;23.80;99.90
44747;DHT22;30472;49.490;10.972;2022-09-01T14:47:18;24.00;99.90
44747;DHT22;30472;49.490;10.972;2022-09-01T14:49:45;24.10;99.90
44747;DHT22;30472;49.490;10.972;2022-09-01T14:52:11;24.20;99.90
44747;DHT22;30472;49.490;10.972;2022-09-01T14:54:40;24.20;99.90
44747;DHT22;30472;49.490;10.972;2022-09-01T14:57:06;24.40;99.90
44747;DHT22;30472;49.490;10.972;2022-09-01T14:59:33;24.70;99.90
44747;DHT22;30472;49.490;10.972;2022-09-01T15:01:59;24.70;99.90
44747;DHT22;30472;49.490;10.972;2022-09-01T15:04:25;24.30;99.90
44747;DHT22;30472;49.490;10.972;2022-09-01T15:06:52;24.50;99.90
44747;DHT22;30472;49.490;10.972;2022-09-01T15:09:18;24.60;99.90
44747;DHT22;30472;49.490;10.972;2022-09-01T15:11:43;24.20;99.90
44747;DHT22;30472;49.490;10.972;2022-09-01T15:14:09;24.40;99.90
44747;DHT22;30472;49.490;10.972;2022-09-01T15:16:36;24.50;99.90
44747;DHT22;30472;49.490;10.972;2022-09-01T15:19:09;24.60;99.90
44747;DHT22;30472;49.490;10.972;2022-09-01T15:21:37;24.70;99.90
44747;DHT22;30472;49.490;10.972;2022-09-01T15:24:04;24.40;99.90
44747;DHT22;30472;49.490;10.972;2022-09-01T15:26:29;24.30;99.90
44747;DHT22;30472;49.490;10.972;2022-09-01T15:28:55;24.10;99.90
44747;DHT22;30472;49.490;10.972;2022-09-01T15:31:25;24.00;99.90
44747;DHT22;30472;49.490;10.972;2022-09-01T15:33:54;24.10;99.90
44747;DHT22;30472;49.490;10.972;2022-09-01T15:36:23;24.10;99.90
44747;DHT22;30472;49.490;10.972;2022-09-01T15:38:49;23.60;99.90
44747;DHT22;30472;49.490;10.972;2022-09-01T15:41:26;23.20;99.90
44747;DHT22;30472;49.490;10.972;2022-09-01T15:43:53;22.90;99.90
44747;DHT22;30472;49.490;10.972;2022-09-01T15:46:19;22.80;99.90
44747;DHT22;30472;49.490;10.972;2022-09-01T15:48:46;22.50;99.90
44747;DHT22;30472;49.490;10.972;2022-09-01T15:54:04;22.30;99.90
44747;DHT22;30472;49.490;10.972;2022-09-01T15:56:30;22.30;99.90
44747;DHT22;30472;49.490;10.972;2022-09-01T15:58:57;22.40;99.90
44747;DHT22;30472;49.490;10.972;2022-09-01T16:01:24;22.60;99.90
44747;DHT22;30472;49.490;10.972;2022-09-01T16:03:49;22.50;99.90
44747;DHT22;30472;49.490;10.972;2022-09-01T16:06:15;22.50;99.90
44747;DHT22;30472;49.490;10.972;2022-09-01T16:08:41;22.60;99.90
44747;DHT22;30472;49.490;10.972;2022-09-01T16:11:08;22.70;99.90
44747;DHT22;30472;49.490;10.972;2022-09-01T16:13:35;22.60;99.90
44747;DHT22;30472;49.490;10.972;2022-09-01T16:19:00;22.30;99.90
44747;DHT22;30472;49.490;10.972;2022-09-01T16:21:55;22.20;99.90
44747;DHT22;30472;49.490;10.972;2022-09-01T16:24:24;22.00;99.90
44747;DHT22;30472;49.490;10.972;2022-09-01T16:26:50;21.90;99.90
44747;DHT22;30472;49.490;10.972;2022-09-01T16:29:59;21.70;99.90